createdAt,value
2022-08-17T00:00:00.309Z,30.6
2022-08-17T00:01:00.454Z,30.7
2022-08-17T00:02:00.329Z,30.8
2022-08-17T00:03:00.312Z,30.7
2022-08-17T00:04:00.510Z,30.6
2022-08-17T00:05:00.345Z,30.6
2022-08-17T00:06:00.317Z,30.6
2022-08-17T00:07:00.316Z,30.5
2022-08-17T00:08:00.428Z,30.5
2022-08-17T00:09:00.367Z,30.5
2022-08-17T00:10:00.479Z,30.6
2022-08-17T00:11:00.423Z,30.6
2022-08-17T00:12:40.695Z,30.7
2022-08-17T00:13:00.292Z,30.7
2022-08-17T00:14:00.328Z,31.0
2022-08-17T00:15:00.321Z,30.8
2022-08-17T00:16:00.459Z,30.8
2022-08-17T00:17:00.423Z,31.0
2022-08-17T00:18:00.333Z,30.8
2022-08-17T00:19:07.973Z,30.9
2022-08-17T00:20:00.434Z,30.6
2022-08-17T00:21:00.315Z,30.6
2022-08-17T00:22:32.178Z,30.6
2022-08-17T00:23:00.320Z,30.7
2022-08-17T00:24:00.322Z,30.8
2022-08-17T00:25:00.436Z,30.8
2022-08-17T00:26:00.355Z,30.8
2022-08-17T00:27:00.333Z,30.8
2022-08-17T00:28:00.334Z,30.9
2022-08-17T00:29:00.332Z,31.1
2022-08-17T00:30:00.324Z,31.2
2022-08-17T00:31:00.431Z,31.1
2022-08-17T00:32:00.318Z,31.2
2022-08-17T00:33:11.986Z,31.1
2022-08-17T00:34:00.327Z,31.3
2022-08-17T00:35:00.341Z,31.2
2022-08-17T00:36:00.574Z,31.1
2022-08-17T00:37:00.337Z,31.1
2022-08-17T00:38:00.383Z,31.1
2022-08-17T00:39:00.300Z,31.2
2022-08-17T00:40:00.512Z,31.2
2022-08-17T00:41:00.364Z,31.3
2022-08-17T00:42:00.446Z,31.4
2022-08-17T00:43:00.385Z,31.5
2022-08-17T00:44:00.395Z,31.6
2022-08-17T00:45:00.376Z,31.7
2022-08-17T00:46:00.374Z,31.8
2022-08-17T00:47:00.403Z,31.7
2022-08-17T00:48:00.405Z,32.0
2022-08-17T00:49:00.455Z,32.0
2022-08-17T00:50:00.369Z,32.0
2022-08-17T00:51:00.393Z,31.7
2022-08-17T00:52:00.427Z,31.7
2022-08-17T00:53:00.329Z,31.6
2022-08-17T00:54:00.399Z,31.5
2022-08-17T00:55:00.491Z,31.7
2022-08-17T00:56:00.312Z,31.7
2022-08-17T00:57:00.330Z,31.6
2022-08-17T00:58:00.311Z,31.7
2022-08-17T00:59:00.374Z,31.8
2022-08-17T01:00:03.125Z,31.7
2022-08-17T01:01:00.395Z,31.7
2022-08-17T01:02:00.412Z,31.7
2022-08-17T01:03:00.315Z,31.7
2022-08-17T01:04:00.300Z,31.7
2022-08-17T01:05:00.308Z,31.6
2022-08-17T01:06:00.305Z,31.7
2022-08-17T01:07:00.324Z,31.7
2022-08-17T01:08:00.458Z,31.7
2022-08-17T01:09:00.329Z,31.8
2022-08-17T01:10:00.299Z,31.9
2022-08-17T01:11:01.832Z,31.8
2022-08-17T01:12:00.303Z,31.9
2022-08-17T01:13:00.353Z,31.8
2022-08-17T01:14:00.311Z,31.9
2022-08-17T01:15:00.401Z,32.1
2022-08-17T01:16:00.313Z,32.1
2022-08-17T01:17:00.416Z,32.2
2022-08-17T01:18:00.324Z,32.4
2022-08-17T01:19:00.310Z,32.4
2022-08-17T01:20:00.404Z,32.5
2022-08-17T01:21:00.312Z,32.5
2022-08-17T01:22:00.336Z,32.5
2022-08-17T01:23:00.302Z,32.5
2022-08-17T01:24:00.321Z,32.5
2022-08-17T01:25:00.337Z,32.5
2022-08-17T01:26:00.421Z,32.4
2022-08-17T01:27:00.338Z,32.5
2022-08-17T01:28:00.307Z,32.4
2022-08-17T01:29:00.304Z,32.3
2022-08-17T01:30:00.326Z,32.4
2022-08-17T01:31:00.331Z,32.4
2022-08-17T01:32:00.450Z,32.4
2022-08-17T01:33:00.536Z,32.3
2022-08-17T01:34:00.600Z,32.2
2022-08-17T01:35:00.311Z,32.3
2022-08-17T01:36:00.315Z,32.3
2022-08-17T01:37:00.302Z,32.3
2022-08-17T01:38:00.403Z,32.3
2022-08-17T01:39:00.326Z,32.2
2022-08-17T01:40:00.468Z,32.3
2022-08-17T01:41:00.327Z,32.3
2022-08-17T01:42:00.300Z,32.5
2022-08-17T01:43:00.338Z,32.3
2022-08-17T01:44:00.433Z,32.3
2022-08-17T01:45:00.311Z,32.5
2022-08-17T01:46:02.817Z,32.6
2022-08-17T01:47:00.404Z,32.6
2022-08-17T01:48:00.368Z,32.6
2022-08-17T01:49:00.341Z,32.8
2022-08-17T01:50:00.366Z,32.9
2022-08-17T01:51:00.460Z,32.8
2022-08-17T01:52:00.328Z,32.7
2022-08-17T01:53:00.477Z,32.7
2022-08-17T01:54:00.331Z,32.8
2022-08-17T01:55:00.356Z,32.9
2022-08-17T01:56:00.313Z,32.7
2022-08-17T01:57:00.307Z,32.7
2022-08-17T01:58:02.068Z,32.6
2022-08-17T01:59:00.411Z,32.5
2022-08-17T02:00:00.341Z,32.6
2022-08-17T02:01:01.635Z,32.5
2022-08-17T02:02:00.325Z,32.5
2022-08-17T02:03:00.327Z,32.6
2022-08-17T02:04:01.600Z,32.6
2022-08-17T02:05:00.417Z,32.7
2022-08-17T02:06:00.402Z,32.9
2022-08-17T02:07:00.304Z,32.9
2022-08-17T02:08:00.902Z,33.0
2022-08-17T02:09:02.340Z,33.0
2022-08-17T02:10:00.317Z,33.0
2022-08-17T02:11:00.482Z,32.9
2022-08-17T02:12:00.382Z,32.9
2022-08-17T02:13:00.362Z,32.9
2022-08-17T02:14:03.582Z,33.0
2022-08-17T02:15:00.299Z,32.9
2022-08-17T02:16:00.303Z,32.9
2022-08-17T02:17:00.392Z,32.8
2022-08-17T02:18:00.308Z,32.7
2022-08-17T02:19:00.325Z,32.6
2022-08-17T02:20:00.314Z,32.6
2022-08-17T02:21:00.315Z,32.6
2022-08-17T02:22:00.333Z,32.6
2022-08-17T02:23:00.404Z,32.7
2022-08-17T02:24:00.338Z,32.8
2022-08-17T02:25:02.275Z,32.8
2022-08-17T02:26:00.355Z,33.0
2022-08-17T02:27:00.333Z,33.0
2022-08-17T02:28:00.338Z,33.0
2022-08-17T02:29:00.454Z,33.0
2022-08-17T02:30:00.333Z,33.1
2022-08-17T02:31:03.009Z,33.1
2022-08-17T02:32:00.320Z,33.1
2022-08-17T02:33:00.333Z,33.1
2022-08-17T02:34:04.695Z,33.1
2022-08-17T02:35:00.404Z,33.1
2022-08-17T02:36:00.309Z,33.1
2022-08-17T02:37:00.352Z,33.1
2022-08-17T02:38:00.369Z,33.0
2022-08-17T02:39:00.315Z,33.0
2022-08-17T02:40:00.469Z,33.2
2022-08-17T02:41:00.455Z,33.1
2022-08-17T02:42:00.345Z,33.0
2022-08-17T02:43:00.405Z,32.9
2022-08-17T02:44:00.426Z,32.8
2022-08-17T02:45:00.400Z,32.6
2022-08-17T02:46:00.333Z,32.7
2022-08-17T02:47:00.288Z,32.7
2022-08-17T02:48:00.502Z,32.7
2022-08-17T02:49:00.318Z,32.8
2022-08-17T02:50:00.316Z,32.8
2022-08-17T02:51:00.333Z,32.8
2022-08-17T02:52:00.359Z,32.8
2022-08-17T02:53:02.262Z,32.7
2022-08-17T02:54:40.317Z,32.7
2022-08-17T02:55:00.294Z,32.8
2022-08-17T02:56:00.334Z,32.7
2022-08-17T02:57:00.367Z,32.7
2022-08-17T02:58:00.322Z,32.6
2022-08-17T02:59:00.448Z,32.5
2022-08-17T03:00:00.396Z,32.4
2022-08-17T03:01:00.327Z,32.4
2022-08-17T03:02:00.370Z,32.3
2022-08-17T03:03:00.306Z,32.0
2022-08-17T03:04:00.322Z,31.8
2022-08-17T03:05:00.293Z,31.8
2022-08-17T03:06:00.377Z,31.9
2022-08-17T03:07:00.348Z,31.8
2022-08-17T03:08:00.359Z,31.8
2022-08-17T03:09:00.305Z,31.8
2022-08-17T03:10:00.372Z,31.7
2022-08-17T03:11:00.311Z,31.5
2022-08-17T03:12:00.503Z,31.6
2022-08-17T03:13:00.337Z,31.6
2022-08-17T03:14:00.302Z,31.6
2022-08-17T03:15:00.399Z,31.7
2022-08-17T03:16:00.392Z,31.7
2022-08-17T03:17:00.400Z,31.6
2022-08-17T03:18:00.420Z,31.5
2022-08-17T03:19:00.325Z,31.6
2022-08-17T03:20:00.297Z,31.7
2022-08-17T03:21:00.291Z,31.9
2022-08-17T03:22:00.313Z,31.8
2022-08-17T03:23:02.840Z,31.8
2022-08-17T03:24:00.368Z,31.6
2022-08-17T03:25:00.275Z,31.5
2022-08-17T03:26:00.336Z,31.4
2022-08-17T03:27:00.269Z,31.4
2022-08-17T03:28:00.317Z,31.1
2022-08-17T03:29:00.292Z,31.1
2022-08-17T03:30:00.393Z,31.0
2022-08-17T03:31:00.300Z,31.1
2022-08-17T03:32:00.308Z,31.3
2022-08-17T03:33:00.288Z,31.4
2022-08-17T03:34:00.334Z,31.1
2022-08-17T03:35:00.311Z,30.9
2022-08-17T03:36:00.362Z,30.8
2022-08-17T03:37:00.327Z,30.8
2022-08-17T03:38:01.192Z,31.5
2022-08-17T03:39:00.322Z,31.0
2022-08-17T03:40:00.433Z,31.1
2022-08-17T03:41:00.389Z,30.9
2022-08-17T03:42:00.404Z,31.1
2022-08-17T03:43:00.277Z,30.9
2022-08-17T03:44:00.311Z,30.8
2022-08-17T03:45:00.288Z,30.7
2022-08-17T03:46:00.431Z,30.7
2022-08-17T03:47:00.363Z,30.6
2022-08-17T03:48:00.403Z,30.6
2022-08-17T03:49:00.282Z,30.2
2022-08-17T03:50:00.283Z,30.4
2022-08-17T03:51:00.265Z,30.3
2022-08-17T03:52:00.301Z,30.3
2022-08-17T03:53:00.374Z,30.2
2022-08-17T03:54:00.311Z,30.2
2022-08-17T03:55:00.281Z,30.3
2022-08-17T03:56:00.278Z,30.4
2022-08-17T03:57:00.315Z,30.4
2022-08-17T03:58:00.307Z,30.3
2022-08-17T03:59:00.386Z,30.1
2022-08-17T04:00:00.306Z,30.1
2022-08-17T04:01:00.441Z,30.4
2022-08-17T04:02:00.300Z,29.6
2022-08-17T04:03:00.274Z,29.5
2022-08-17T04:04:00.288Z,29.7
2022-08-17T04:05:00.393Z,29.7
2022-08-17T04:06:00.273Z,29.6
2022-08-17T04:07:00.301Z,29.5
2022-08-17T04:08:00.371Z,29.6
2022-08-17T04:09:00.307Z,29.5
2022-08-17T04:10:00.330Z,28.5
2022-08-17T04:11:00.406Z,28.6
2022-08-17T04:12:02.242Z,28.6
2022-08-17T04:13:00.355Z,28.7
2022-08-17T04:14:00.293Z,28.6
2022-08-17T04:15:00.355Z,28.4
2022-08-17T04:16:00.371Z,28.3
2022-08-17T04:17:00.485Z,28.0
2022-08-17T04:18:00.292Z,28.3
2022-08-17T04:19:00.277Z,27.7
2022-08-17T04:20:00.536Z,27.8
2022-08-17T04:21:00.485Z,27.9
2022-08-17T04:22:00.344Z,28.0
2022-08-17T04:23:00.402Z,28.0
2022-08-17T04:24:00.371Z,28.1
2022-08-17T04:25:00.375Z,28.2
2022-08-17T04:26:00.294Z,28.0
2022-08-17T04:27:00.360Z,28.0
2022-08-17T04:28:00.329Z,27.9
2022-08-17T04:29:00.301Z,27.9
2022-08-17T04:30:00.390Z,27.8
2022-08-17T04:31:00.321Z,27.9
2022-08-17T04:32:00.305Z,27.8
2022-08-17T04:33:06.405Z,27.9
2022-08-17T04:34:00.316Z,27.9
2022-08-17T04:35:00.392Z,27.9
2022-08-17T04:36:00.336Z,27.9
2022-08-17T04:37:00.316Z,27.8
2022-08-17T04:38:00.412Z,27.7
2022-08-17T04:39:00.303Z,27.5
2022-08-17T04:40:03.942Z,27.3
2022-08-17T04:41:00.302Z,27.3
2022-08-17T04:42:00.308Z,27.0
2022-08-17T04:43:01.108Z,27.0
2022-08-17T04:44:00.305Z,26.9
2022-08-17T04:45:00.297Z,26.6
2022-08-17T04:46:00.428Z,26.6
2022-08-17T04:47:00.314Z,26.7
2022-08-17T04:48:00.306Z,26.6
2022-08-17T04:49:00.292Z,26.5
2022-08-17T04:50:00.344Z,26.7
2022-08-17T04:51:00.343Z,26.6
2022-08-17T04:52:04.347Z,26.4
2022-08-17T04:53:00.798Z,25.8
2022-08-17T04:54:00.370Z,24.6
2022-08-17T04:55:00.319Z,24.5
2022-08-17T04:56:00.356Z,23.6
2022-08-17T04:57:00.313Z,23.8
2022-08-17T04:58:00.425Z,23.8
2022-08-17T04:59:00.322Z,23.8
2022-08-17T05:00:00.305Z,23.6
2022-08-17T05:01:00.440Z,23.0
2022-08-17T05:02:00.319Z,22.9
2022-08-17T05:03:00.390Z,23.1
2022-08-17T05:04:00.317Z,22.8
2022-08-17T05:05:00.320Z,21.8
2022-08-17T05:06:00.333Z,21.2
2022-08-17T05:07:00.288Z,21.6
2022-08-17T05:08:00.316Z,21.7
2022-08-17T05:09:00.387Z,21.5
2022-08-17T05:10:00.305Z,21.6
2022-08-17T05:11:00.305Z,21.5
2022-08-17T05:12:00.288Z,20.8
2022-08-17T05:13:00.306Z,20.9
2022-08-17T05:14:00.302Z,20.7
2022-08-17T05:15:00.407Z,20.8
2022-08-17T05:16:00.411Z,20.9
2022-08-17T05:17:00.327Z,20.4
2022-08-17T05:18:00.335Z,20.5
2022-08-17T05:19:00.327Z,20.9
2022-08-17T05:20:00.339Z,21.1
2022-08-17T05:21:00.375Z,21.0
2022-08-17T05:22:00.502Z,20.6
2022-08-17T05:23:00.426Z,20.8
2022-08-17T05:24:00.325Z,20.5
2022-08-17T05:25:02.704Z,20.6
2022-08-17T05:26:00.360Z,20.8
2022-08-17T05:27:03.858Z,20.2
2022-08-17T05:28:00.387Z,19.8
2022-08-17T05:29:02.755Z,20.2
2022-08-17T05:30:00.425Z,20.2
2022-08-17T05:31:00.389Z,20.4
2022-08-17T05:32:00.404Z,20.5
2022-08-17T05:33:00.328Z,20.5
2022-08-17T05:34:00.424Z,20.5
2022-08-17T05:35:00.600Z,20.2
2022-08-17T05:36:00.305Z,20.2
2022-08-17T05:37:00.313Z,20.2
2022-08-17T05:38:00.420Z,20.3
2022-08-17T05:39:00.299Z,20.3
2022-08-17T05:40:00.540Z,20.1
2022-08-17T05:41:00.325Z,20.2
2022-08-17T05:42:00.319Z,20.2
2022-08-17T05:43:00.302Z,19.4
2022-08-17T05:44:00.320Z,19.1
2022-08-17T05:45:00.382Z,19.2
2022-08-17T05:46:00.359Z,18.8
2022-08-17T05:47:00.398Z,19.0
2022-08-17T05:48:00.360Z,18.6
2022-08-17T05:49:00.280Z,18.4
2022-08-17T05:50:00.476Z,18.4
2022-08-17T05:51:00.335Z,17.4
2022-08-17T05:52:00.364Z,17.5
2022-08-17T05:53:00.307Z,17.2
2022-08-17T05:54:00.320Z,18.0
2022-08-17T05:55:00.299Z,16.6
2022-08-17T05:56:00.395Z,17.6
2022-08-17T05:57:00.342Z,17.9
2022-08-17T05:58:00.339Z,16.4
2022-08-17T05:59:00.316Z,17.5
2022-08-17T06:00:00.375Z,17.5
2022-08-17T06:01:00.533Z,17.8
2022-08-17T06:02:00.297Z,17.8
2022-08-17T06:03:00.323Z,17.6
2022-08-17T06:04:00.303Z,17.1
2022-08-17T06:05:00.323Z,16.9
2022-08-17T06:06:00.689Z,17.1
2022-08-17T06:07:00.308Z,17.4
2022-08-17T06:08:00.301Z,17.3
2022-08-17T06:09:00.295Z,16.7
2022-08-17T06:10:00.302Z,16.3
2022-08-17T06:11:00.304Z,16.6
2022-08-17T06:12:00.395Z,16.5
2022-08-17T06:13:00.315Z,15.7
2022-08-17T06:14:00.332Z,14.8
2022-08-17T06:15:00.438Z,13.4
2022-08-17T06:16:00.360Z,14.3
2022-08-17T06:17:00.346Z,14.5
2022-08-17T06:18:00.432Z,15.2
2022-08-17T06:19:00.394Z,15.6
2022-08-17T06:20:00.288Z,14.9
2022-08-17T06:21:00.321Z,15.2
2022-08-17T06:22:00.307Z,14.7
2022-08-17T06:23:00.516Z,14.8
2022-08-17T06:24:00.373Z,14.8
2022-08-17T06:25:00.386Z,14.1
2022-08-17T06:26:00.369Z,14.7
2022-08-17T06:27:00.318Z,14.5
2022-08-17T06:28:00.458Z,14.7
2022-08-17T06:29:00.302Z,14.6
2022-08-17T06:30:00.500Z,15.0
2022-08-17T06:31:01.284Z,14.7
2022-08-17T06:32:00.299Z,14.7
2022-08-17T06:33:00.320Z,13.8
2022-08-17T06:34:00.303Z,13.6
2022-08-17T06:35:00.315Z,14.1
2022-08-17T06:36:00.307Z,14.6
2022-08-17T06:37:00.449Z,14.5
2022-08-17T06:38:00.298Z,14.7
2022-08-17T06:39:00.316Z,15.1
2022-08-17T06:40:00.419Z,14.5
2022-08-17T06:41:00.323Z,14.7
2022-08-17T06:42:00.303Z,14.9
2022-08-17T06:43:05.694Z,14.5
2022-08-17T06:44:00.308Z,14.3
2022-08-17T06:45:00.392Z,14.6
2022-08-17T06:46:00.307Z,14.4
2022-08-17T06:47:00.314Z,13.9
2022-08-17T06:48:00.310Z,12.7
2022-08-17T06:49:00.409Z,12.0
2022-08-17T06:50:00.336Z,10.5
2022-08-17T06:51:00.396Z,10.1
2022-08-17T06:52:00.290Z,9.1
2022-08-17T06:53:00.486Z,8.4
2022-08-17T06:54:00.455Z,7.4
2022-08-17T06:55:00.364Z,6.9
2022-08-17T06:56:00.395Z,6.5
2022-08-17T06:57:00.328Z,6.2
2022-08-17T06:58:00.329Z,6.1
2022-08-17T06:59:00.353Z,5.4
2022-08-17T07:00:00.454Z,5.1
2022-08-17T07:01:00.340Z,5.3
2022-08-17T07:02:00.320Z,5.0
2022-08-17T07:03:00.308Z,5.1
2022-08-17T07:04:00.349Z,5.0
2022-08-17T07:05:00.361Z,5.0
2022-08-17T07:06:00.467Z,4.7
2022-08-17T07:07:00.356Z,4.6
2022-08-17T07:08:00.329Z,4.6
2022-08-17T07:09:00.311Z,4.4
2022-08-17T07:10:00.300Z,4.5
2022-08-17T07:11:00.517Z,4.0
2022-08-17T07:12:00.317Z,4.3
2022-08-17T07:13:00.282Z,4.3
2022-08-17T07:14:00.295Z,4.0
2022-08-17T07:15:00.388Z,3.6
2022-08-17T07:16:00.287Z,3.4
2022-08-17T07:17:00.405Z,3.7
2022-08-17T07:18:00.579Z,4.1
2022-08-17T07:19:00.381Z,3.8
2022-08-17T07:20:00.317Z,3.5
2022-08-17T07:21:00.325Z,3.6
2022-08-17T07:22:00.376Z,3.4
2022-08-17T07:23:00.723Z,3.6
2022-08-17T07:24:00.392Z,3.9
2022-08-17T07:25:00.311Z,4.1
2022-08-17T07:26:00.301Z,3.6
2022-08-17T07:27:00.322Z,3.8
2022-08-17T07:28:00.329Z,4.1
2022-08-17T07:29:00.389Z,4.1
2022-08-17T07:30:00.396Z,4.2
2022-08-17T07:31:00.298Z,4.3
2022-08-17T07:32:00.327Z,4.1
2022-08-17T07:33:00.323Z,4.1
2022-08-17T07:34:00.313Z,3.7
2022-08-17T07:35:00.491Z,3.7
2022-08-17T07:36:00.338Z,3.8
2022-08-17T07:37:00.333Z,3.7
2022-08-17T07:38:00.300Z,4.1
2022-08-17T07:39:00.385Z,3.9
2022-08-17T07:40:16.065Z,3.6
2022-08-17T07:41:00.408Z,3.4
2022-08-17T07:42:00.325Z,3.5
2022-08-17T07:43:00.431Z,3.3
2022-08-17T07:44:00.377Z,3.2
2022-08-17T07:45:00.488Z,3.3
2022-08-17T07:46:00.308Z,3.3
2022-08-17T07:47:00.436Z,3.3
2022-08-17T07:48:00.311Z,3.1
2022-08-17T07:49:00.311Z,3.2
2022-08-17T07:50:00.321Z,3.4
2022-08-17T07:51:00.333Z,3.6
2022-08-17T07:52:24.937Z,3.4
2022-08-17T07:53:00.403Z,3.7
2022-08-17T07:54:13.699Z,3.9
2022-08-17T07:55:00.345Z,3.8
2022-08-17T07:56:00.323Z,3.9
2022-08-17T07:57:00.316Z,4.2
2022-08-17T07:58:00.425Z,4.4
2022-08-17T07:59:00.434Z,4.3
2022-08-17T08:00:01.235Z,4.3
2022-08-17T08:01:00.389Z,4.3
2022-08-17T08:02:00.391Z,4.2
2022-08-17T08:03:00.317Z,4.1
2022-08-17T08:04:00.310Z,4.0
2022-08-17T08:05:01.672Z,4.2
2022-08-17T08:06:00.316Z,4.3
2022-08-17T08:07:00.326Z,4.1
2022-08-17T08:08:00.324Z,4.1
2022-08-17T08:09:00.383Z,3.9
2022-08-17T08:10:00.349Z,4.1
2022-08-17T08:11:00.449Z,4.3
2022-08-17T08:12:00.335Z,4.2
2022-08-17T08:13:00.472Z,4.0
2022-08-17T08:14:00.295Z,4.1
2022-08-17T08:15:00.305Z,4.3
2022-08-17T08:16:00.381Z,4.5
2022-08-17T08:17:00.418Z,4.4
2022-08-17T08:18:00.351Z,4.2
2022-08-17T08:19:00.466Z,4.3
2022-08-17T08:20:00.316Z,4.3
2022-08-17T08:21:00.324Z,4.2
2022-08-17T08:22:00.296Z,4.7
2022-08-17T08:23:00.306Z,4.9
2022-08-17T08:24:00.670Z,5.2
2022-08-17T08:25:00.301Z,5.3
2022-08-17T08:26:00.284Z,5.5
2022-08-17T08:27:00.310Z,5.5
2022-08-17T08:28:00.675Z,5.8
2022-08-17T08:29:00.297Z,6.1
2022-08-17T08:30:00.380Z,6.0
2022-08-17T08:31:00.311Z,5.9
2022-08-17T08:32:00.322Z,5.9
2022-08-17T08:33:00.299Z,6.1
2022-08-17T08:34:00.322Z,5.7
2022-08-17T08:35:02.961Z,6.1
2022-08-17T08:36:00.388Z,6.1
2022-08-17T08:37:16.519Z,6.1
2022-08-17T08:38:00.311Z,6.4
2022-08-17T08:39:00.330Z,6.7
2022-08-17T08:40:00.380Z,6.9
2022-08-17T08:41:00.385Z,7.0
2022-08-17T08:42:00.382Z,7.1
2022-08-17T08:43:00.381Z,7.0
2022-08-17T08:44:00.305Z,7.6
2022-08-17T08:45:04.607Z,7.1
2022-08-17T08:46:00.392Z,7.1
2022-08-17T08:47:00.316Z,7.2
2022-08-17T08:48:05.140Z,6.8
2022-08-17T08:49:06.528Z,7.0
2022-08-17T08:50:04.992Z,7.4
2022-08-17T08:51:00.421Z,7.7
2022-08-17T08:52:00.312Z,8.0
2022-08-17T08:53:00.397Z,8.4
2022-08-17T08:54:00.320Z,8.7
2022-08-17T08:55:00.406Z,8.6
2022-08-17T08:56:00.359Z,8.9
2022-08-17T08:57:23.296Z,8.9
2022-08-17T08:58:00.388Z,9.0
2022-08-17T08:59:00.451Z,9.2
2022-08-17T09:00:00.362Z,9.6
2022-08-17T09:01:00.473Z,9.7
2022-08-17T09:02:00.338Z,9.8
2022-08-17T09:03:00.337Z,9.7
2022-08-17T09:04:19.535Z,9.5
2022-08-17T09:05:14.794Z,9.8
2022-08-17T09:06:00.299Z,10.1
2022-08-17T09:07:00.337Z,9.8
2022-08-17T09:08:00.322Z,10.1
2022-08-17T09:09:00.330Z,10.2
2022-08-17T09:10:00.346Z,10.0
2022-08-17T09:11:00.410Z,10.2
2022-08-17T09:12:01.901Z,10.5
2022-08-17T09:13:09.277Z,11.0
2022-08-17T09:14:00.336Z,11.1
2022-08-17T09:15:00.339Z,11.1
2022-08-17T09:16:00.309Z,11.3
2022-08-17T09:17:00.410Z,11.0
2022-08-17T09:18:30.303Z,11.3
2022-08-17T09:19:04.516Z,11.2
2022-08-17T09:20:00.317Z,11.1
2022-08-17T09:21:00.330Z,11.2
2022-08-17T09:22:00.506Z,11.1
2022-08-17T09:23:00.459Z,10.9
2022-08-17T09:24:00.328Z,11.2
2022-08-17T09:25:00.387Z,11.5
2022-08-17T09:26:00.462Z,11.6
2022-08-17T09:27:00.351Z,11.6
2022-08-17T09:28:00.918Z,11.9
2022-08-17T09:29:00.386Z,11.4
2022-08-17T09:30:00.335Z,11.6
2022-08-17T09:31:00.417Z,11.6
2022-08-17T09:32:00.416Z,11.4
2022-08-17T09:33:00.366Z,11.7
2022-08-17T09:34:00.341Z,11.7
2022-08-17T09:35:00.304Z,11.9
2022-08-17T09:36:00.330Z,11.8
2022-08-17T09:37:00.426Z,11.9
2022-08-17T09:38:00.301Z,12.0
2022-08-17T09:39:00.343Z,11.6
2022-08-17T09:40:00.549Z,11.8
2022-08-17T09:41:00.458Z,11.7
2022-08-17T09:42:00.299Z,12.0
2022-08-17T09:43:00.539Z,12.1
2022-08-17T09:44:00.335Z,12.3
2022-08-17T09:45:00.317Z,12.1
2022-08-17T09:46:00.319Z,12.4
2022-08-17T09:47:00.297Z,12.4
2022-08-17T09:48:00.321Z,12.4
2022-08-17T09:49:00.392Z,12.0
2022-08-17T09:50:00.283Z,12.1
2022-08-17T09:51:05.966Z,12.2
2022-08-17T09:52:00.319Z,12.1
2022-08-17T09:53:00.416Z,12.3
2022-08-17T09:54:21.037Z,12.1
2022-08-17T09:55:00.425Z,12.3
2022-08-17T09:56:00.341Z,12.3
2022-08-17T09:57:25.814Z,12.2
2022-08-17T09:58:00.317Z,11.6
2022-08-17T09:59:00.322Z,11.8
2022-08-17T10:00:00.327Z,12.0
2022-08-17T10:01:00.426Z,12.3
2022-08-17T10:02:00.330Z,12.3
2022-08-17T10:03:00.310Z,11.9
2022-08-17T10:04:00.445Z,12.0
2022-08-17T10:05:00.396Z,12.3
2022-08-17T10:06:00.377Z,12.6
2022-08-17T10:07:00.402Z,12.4
2022-08-17T10:08:00.411Z,12.3
2022-08-17T10:09:00.430Z,12.2
2022-08-17T10:10:00.401Z,12.2
2022-08-17T10:11:00.336Z,12.0
2022-08-17T10:12:00.316Z,11.8
2022-08-17T10:13:00.562Z,11.5
2022-08-17T10:14:00.310Z,11.5
2022-08-17T10:15:07.702Z,11.3
2022-08-17T10:16:00.335Z,11.7
2022-08-17T10:17:00.289Z,11.6
2022-08-17T10:18:00.338Z,11.7
2022-08-17T10:19:00.520Z,11.8
2022-08-17T10:20:00.429Z,11.7
2022-08-17T10:21:00.333Z,11.6
2022-08-17T10:22:01.182Z,11.5
2022-08-17T10:23:00.385Z,11.4
2022-08-17T10:24:00.397Z,11.7
2022-08-17T10:25:20.975Z,11.8
2022-08-17T10:26:00.300Z,12.0
2022-08-17T10:27:00.291Z,12.1
2022-08-17T10:28:00.527Z,12.1
2022-08-17T10:29:00.307Z,12.1
2022-08-17T10:30:00.333Z,11.8
2022-08-17T10:31:23.392Z,11.8
2022-08-17T10:32:00.287Z,11.9
2022-08-17T10:33:00.305Z,11.8
2022-08-17T10:34:00.540Z,11.8
2022-08-17T10:35:00.326Z,11.7
2022-08-17T10:36:00.311Z,12.2
2022-08-17T10:37:00.435Z,11.9
2022-08-17T10:38:00.375Z,11.9
2022-08-17T10:39:00.472Z,12.0
2022-08-17T10:40:00.428Z,12.4
2022-08-17T10:41:00.314Z,12.6
2022-08-17T10:42:00.318Z,12.5
2022-08-17T10:43:00.381Z,12.4
2022-08-17T10:44:39.648Z,12.3
2022-08-17T10:45:00.454Z,12.4
2022-08-17T10:46:27.765Z,12.3
2022-08-17T10:47:00.432Z,11.8
2022-08-17T10:48:05.170Z,11.5
2022-08-17T10:49:00.319Z,11.3
2022-08-17T10:50:00.331Z,11.5
2022-08-17T10:51:00.469Z,11.3
2022-08-17T10:52:00.319Z,11.4
2022-08-17T10:53:00.383Z,11.7
2022-08-17T10:54:00.436Z,11.8
2022-08-17T10:55:00.281Z,11.7
2022-08-17T10:56:00.330Z,11.9
2022-08-17T10:57:00.288Z,12.1
2022-08-17T10:58:00.319Z,12.2
2022-08-17T10:59:00.510Z,11.7
2022-08-17T11:00:00.349Z,11.9
2022-08-17T11:01:00.443Z,12.0
2022-08-17T11:02:00.346Z,12.3
2022-08-17T11:03:00.411Z,12.5
2022-08-17T11:04:00.377Z,12.9
2022-08-17T11:05:00.371Z,12.9
2022-08-17T11:06:00.395Z,12.8
2022-08-17T11:07:00.469Z,12.9
2022-08-17T11:08:00.365Z,13.1
2022-08-17T11:09:00.410Z,13.1
2022-08-17T11:10:00.347Z,13.3
2022-08-17T11:11:00.330Z,13.0
2022-08-17T11:12:00.346Z,13.2
2022-08-17T11:13:00.472Z,13.2
2022-08-17T11:14:00.310Z,12.7
2022-08-17T11:15:00.288Z,13.0
2022-08-17T11:16:03.571Z,12.8
2022-08-17T11:17:00.307Z,12.3
2022-08-17T11:18:00.405Z,12.4
2022-08-17T11:19:00.406Z,12.6
2022-08-17T11:20:00.314Z,13.0
2022-08-17T11:21:00.628Z,13.2
2022-08-17T11:22:00.307Z,12.7
2022-08-17T11:23:00.357Z,12.7
2022-08-17T11:24:00.423Z,12.6
2022-08-17T11:25:00.388Z,12.7
2022-08-17T11:26:00.318Z,12.6
2022-08-17T11:27:00.436Z,12.4
2022-08-17T11:28:00.425Z,12.6
2022-08-17T11:29:00.379Z,12.4
2022-08-17T11:30:02.230Z,12.3
2022-08-17T11:31:00.429Z,12.2
2022-08-17T11:32:00.327Z,12.3
2022-08-17T11:33:00.615Z,12.4
2022-08-17T11:34:00.595Z,12.6
2022-08-17T11:35:00.346Z,12.7
2022-08-17T11:36:00.359Z,12.9
2022-08-17T11:37:00.719Z,12.9
2022-08-17T11:38:00.328Z,13.3
2022-08-17T11:39:00.431Z,13.1
2022-08-17T11:40:00.639Z,13.2
2022-08-17T11:41:00.301Z,13.4
2022-08-17T11:42:00.299Z,13.6
2022-08-17T11:43:00.550Z,13.7
2022-08-17T11:44:02.068Z,13.1
2022-08-17T11:45:00.296Z,13.5
2022-08-17T11:46:00.345Z,13.5
2022-08-17T11:47:00.311Z,13.4
2022-08-17T11:49:00.349Z,13.5
2022-08-17T11:50:00.427Z,13.6
2022-08-17T11:51:00.309Z,13.7
2022-08-17T11:52:00.342Z,13.8
2022-08-17T11:53:00.353Z,13.8
2022-08-17T11:54:30.518Z,13.9
2022-08-17T11:55:17.554Z,13.9
2022-08-17T11:56:00.399Z,13.6
2022-08-17T11:57:00.349Z,13.1
2022-08-17T11:58:00.317Z,13.2
2022-08-17T11:59:00.409Z,13.4
2022-08-17T12:00:00.375Z,13.3
2022-08-17T12:01:00.347Z,13.3
2022-08-17T12:02:00.455Z,13.1
2022-08-17T12:03:00.310Z,13.2
2022-08-17T12:04:00.384Z,13.1
2022-08-17T12:05:00.487Z,13.0
2022-08-17T12:06:00.545Z,13.0
2022-08-17T12:07:00.535Z,13.2
2022-08-17T12:08:00.674Z,13.2
2022-08-17T12:09:00.393Z,13.3
2022-08-17T12:10:00.419Z,13.3
2022-08-17T12:11:00.329Z,13.4
2022-08-17T12:12:13.351Z,13.6
2022-08-17T12:13:00.385Z,13.8
2022-08-17T12:14:00.407Z,13.8
2022-08-17T12:15:11.383Z,13.7
2022-08-17T12:16:00.341Z,13.7
2022-08-17T12:17:00.367Z,13.9
2022-08-17T12:18:00.409Z,13.9
2022-08-17T12:19:00.315Z,13.9
2022-08-17T12:20:00.464Z,13.9
2022-08-17T12:21:00.347Z,13.9
2022-08-17T12:22:00.298Z,14.0
2022-08-17T12:23:00.543Z,14.0
2022-08-17T12:24:00.322Z,13.9
2022-08-17T12:25:00.419Z,13.8
2022-08-17T12:26:00.595Z,13.6
2022-08-17T12:27:00.335Z,13.7
2022-08-17T12:28:06.442Z,13.9
2022-08-17T12:29:00.307Z,13.9
2022-08-17T12:30:00.356Z,14.0
2022-08-17T12:31:00.340Z,14.1
2022-08-17T12:32:00.406Z,14.3
2022-08-17T12:33:00.573Z,14.4
2022-08-17T12:34:00.435Z,14.6
2022-08-17T12:35:00.447Z,14.6
2022-08-17T12:36:00.489Z,14.7
2022-08-17T12:37:00.280Z,14.5
2022-08-17T12:38:00.569Z,14.5
2022-08-17T12:39:12.865Z,14.3
2022-08-17T12:40:00.493Z,14.2
2022-08-17T12:41:00.292Z,14.1
2022-08-17T12:42:02.693Z,13.7
2022-08-17T12:43:00.337Z,13.7
2022-08-17T12:44:00.367Z,13.6
2022-08-17T12:45:00.377Z,13.8
2022-08-17T12:46:00.320Z,14.1
2022-08-17T12:47:00.317Z,14.3
2022-08-17T12:48:00.307Z,14.4
2022-08-17T12:49:00.454Z,14.4
2022-08-17T12:50:00.378Z,14.5
2022-08-17T12:51:00.312Z,14.5
2022-08-17T12:52:00.339Z,14.6
2022-08-17T12:53:02.481Z,14.8
2022-08-17T12:54:00.348Z,15.0
2022-08-17T12:55:00.405Z,15.0
2022-08-17T12:56:00.289Z,14.9
2022-08-17T12:57:00.306Z,15.0
2022-08-17T12:58:01.831Z,14.9
2022-08-17T12:59:00.306Z,14.8
2022-08-17T13:00:00.310Z,14.3
2022-08-17T13:01:00.434Z,14.3
2022-08-17T13:02:00.370Z,14.5
2022-08-17T13:03:00.299Z,14.5
2022-08-17T13:04:00.422Z,14.9
2022-08-17T13:05:00.323Z,15.0
2022-08-17T13:06:00.299Z,15.2
2022-08-17T13:07:00.493Z,15.2
2022-08-17T13:08:00.459Z,15.3
2022-08-17T13:09:00.344Z,15.2
2022-08-17T13:10:00.408Z,15.0
2022-08-17T13:11:00.361Z,15.2
2022-08-17T13:12:00.451Z,15.1
2022-08-17T13:13:00.319Z,15.3
2022-08-17T13:14:00.361Z,15.5
2022-08-17T13:15:00.388Z,15.4
2022-08-17T13:16:00.389Z,15.5
2022-08-17T13:17:00.372Z,15.3
2022-08-17T13:18:00.331Z,15.2
2022-08-17T13:19:00.422Z,15.1
2022-08-17T13:20:00.459Z,14.9
2022-08-17T13:21:00.457Z,14.9
2022-08-17T13:22:00.312Z,15.0
2022-08-17T13:23:00.381Z,15.0